メインページ
METAR-TAF:

METAR-TAF

空港 :

Grayling Army Airfield

Grayling, ミシガン州, アメリカ合衆国

緯度: 44-40-49N, 経度: 084-43-44W, 海抜: 353m

現時点の気象観測

当レポートは32分前の04:58(UTC)に作成
東/南東の風 4kt
気温 2°C
湿度 80%
気圧 1017 hPa
視程: 16.1km
晴天

METAR: KGOV 040458Z AUTO 11004KT 10SM CLR 02/M01 A3003 RMK AO2 SLP182 T00221014 $

時間: 01:30 (05:30 UTC)


TAF: 見つかりません

4,000以上の空港の気象観測と天気予報(METAR報とTAF報)

利用可能な観測所は地図上に黄色い丸と赤い丸で示す。

丸の上にカーソルを重ねると観測所名を参照できる。

次にクリックすると気象観測と天気予報を参照できる。

マップの切り替え:黒色「×」印の緑ボタンをクリックして拡大、「-」印の緑ボタンをクリックして縮小、緑色の三角印をクリックして隣りの地図に切り替え


METAR-TAF: